Carnival Splendor — 3EUS — position and weather

sailwx.info

Track history (hours):
 
Tides and Currents Weather Stations Pressure Air Temp Water Temp Dewpoint Dewpoint Depression Visibility Wind Speed Wind Dir Waves Ship Positions

Carnival Splendor

Last reported at 2014-Nov-23 20:25 UTC. Time now 2014-Nov-23 20:52 UTC.
Position N 25°47' W 080°10'.

Length 290 m; draft 8.3 m.

Type: Ship. MMSI: 372808000.

Date/timePositionNaut miles runAvg speedWind from/ knotsBaromVisibWave heightAir tempDewpointWater temp
2014-Nov-23 20:25N 25°47' W 080°10'0 0.0
2014-Nov-23 19:31N 25°47' W 080°10'0 0.0
2014-Nov-23 18:31N 25°47' W 080°10'0 0.0
2014-Nov-23 17:33N 25°47' W 080°10'0 0.0
2014-Nov-23 16:33N 25°47' W 080°10'0 0.0
2014-Nov-23 15:20N 25°47' W 080°10'0 0.0
2014-Nov-23 14:29N 25°47' W 080°10'0 0.0
2014-Nov-23 13:25N 25°47' W 080°10'0 0.0
2014-Nov-23 12:31N 25°47' W 080°10'3 3.0
2014-Nov-23 11:33N 25°46' W 080°07'1111.2
2014-Nov-23 10:33N 25°50' W 079°56'1211.9
2014-Nov-23 09:33N 25°57' W 079°45'1414.2
2014-Nov-23 08:33N 26°04' W 079°31'1514.9
2014-Nov-23 07:33N 26°11' W 079°17'34316.7
2014-Nov-22 11:00N 23°42' W 073°36'24110.0 060 / 211019.0 5.4 26.017.028.0
2014-Nov-21 11:00N 21°12' W 070°12'41312.3 100 / 201016.010.8 27.020.029.0
2014-Nov-20 01:23N 18°19' W 063°34'2016.5
2014-Nov-20 00:09N 18°06' W 063°17'1214.8
2014-Nov-19 23:21N 18°00' W 063°06'3 1.1
2014-Nov-19 20:26N 18°01' W 063°03'0 0.0
2014-Nov-19 19:13N 18°01' W 063°03'0 0.0
2014-Nov-19 16:30N 18°01' W 063°03'0 0.0
2014-Nov-19 15:17N 18°01' W 063°03'0 0.0
2014-Nov-19 14:11N 18°01' W 063°03'11 7.1
2014-Nov-19 12:33N 18°03' W 063°15'1222.1
2014-Nov-19 12:00N 18°12' W 063°24'510.0 070 / 301015.0 5.4 28.021.027.0
2014-Nov-19 11:29N 18°13' W 063°29'1815.1
2014-Nov-19 10:19N 18°27' W 063°41'39116.7
2014-Nov-18 11:00N 22°00' W 069°30'22218.5 050 / 231017.0 5.4 27.020.029.0
2014-Nov-17 23:00N 23°48' W 073°00'21517.9 180 / 251016.0 5.4 27.023.027.0
2014-Nov-17 11:00N 25°36' W 076°24'15616.5 140 / 191017.0 5.4 27.020.027.0
2014-Nov-17 01:33N 26°15' W 079°12'1717.5
2014-Nov-17 00:33N 26°05' W 079°29'1818.3
2014-Nov-16 23:33N 25°56' W 079°46'1818.0
2014-Nov-16 22:34N 25°46' W 080°02'8 7.5
2014-Nov-16 21:32N 25°47' W 080°11'1 0.6
2014-Nov-16 20:33N 25°47' W 080°10'0 0.0
2014-Nov-16 19:30N 25°47' W 080°10'0 0.0
2014-Nov-16 18:32N 25°47' W 080°10'0 0.0
2014-Nov-16 17:29N 25°47' W 080°10'0 0.0
2014-Nov-16 16:04N 25°47' W 080°10'0 0.0
2014-Nov-16 15:31N 25°47' W 080°10'0 0.0
2014-Nov-16 14:24N 25°47' W 080°10'0 0.0
2014-Nov-16 13:33N 25°47' W 080°10'0 0.0
2014-Nov-16 12:33N 25°47' W 080°10'0 0.0
2014-Nov-16 11:33N 25°47' W 080°10'8 7.7
2014-Nov-16 10:33N 25°45' W 080°02'1212.3
2014-Nov-16 09:33N 25°34' W 079°57'41518.4
2014-Nov-15 11:00N 20°54' W 085°30'   060 / 211016.0 5.4 26.019.029.0
Track history (hours):
 
Tides and Currents Weather Stations Pressure Air Temp Water Temp Dewpoint Dewpoint Depression Visibility Wind Speed Wind Dir Waves Ship Positions

Carnival Splendor

Last reported at 2014-Nov-23 20:25 UTC. Time now 2014-Nov-23 20:52 UTC.
Position N 25°47' W 080°10'.

Length 290 m; draft 8.3 m.

Type: Ship. MMSI: 372808000.

Date/timePositionNaut miles runAvg speedWind from/ knotsBaromVisibWave heightAir tempDewpointWater temp
2014-Nov-23 20:25N 25°47' W 080°10'0 0.0
2014-Nov-23 19:31N 25°47' W 080°10'0 0.0
2014-Nov-23 18:31N 25°47' W 080°10'0 0.0
2014-Nov-23 17:33N 25°47' W 080°10'0 0.0
2014-Nov-23 16:33N 25°47' W 080°10'0 0.0
2014-Nov-23 15:20N 25°47' W 080°10'0 0.0
2014-Nov-23 14:29N 25°47' W 080°10'0 0.0
2014-Nov-23 13:25N 25°47' W 080°10'0 0.0
2014-Nov-23 12:31N 25°47' W 080°10'3 3.0
2014-Nov-23 11:33N 25°46' W 080°07'1111.2
2014-Nov-23 10:33N 25°50' W 079°56'1211.9
2014-Nov-23 09:33N 25°57' W 079°45'1414.2
2014-Nov-23 08:33N 26°04' W 079°31'1514.9
2014-Nov-23 07:33N 26°11' W 079°17'34316.7
2014-Nov-22 11:00N 23°42' W 073°36'24110.0 060 / 211019.0 5.4 26.017.028.0
2014-Nov-21 11:00N 21°12' W 070°12'41312.3 100 / 201016.010.8 27.020.029.0
2014-Nov-20 01:23N 18°19' W 063°34'2016.5
2014-Nov-20 00:09N 18°06' W 063°17'1214.8
2014-Nov-19 23:21N 18°00' W 063°06'3 1.1
2014-Nov-19 20:26N 18°01' W 063°03'0 0.0
2014-Nov-19 19:13N 18°01' W 063°03'0 0.0
2014-Nov-19 16:30N 18°01' W 063°03'0 0.0
2014-Nov-19 15:17N 18°01' W 063°03'0 0.0
2014-Nov-19 14:11N 18°01' W 063°03'11 7.1
2014-Nov-19 12:33N 18°03' W 063°15'1222.1
2014-Nov-19 12:00N 18°12' W 063°24'510.0 070 / 301015.0 5.4 28.021.027.0
2014-Nov-19 11:29N 18°13' W 063°29'1815.1
2014-Nov-19 10:19N 18°27' W 063°41'39116.7
2014-Nov-18 11:00N 22°00' W 069°30'22218.5 050 / 231017.0 5.4 27.020.029.0
2014-Nov-17 23:00N 23°48' W 073°00'21517.9 180 / 251016.0 5.4 27.023.027.0
2014-Nov-17 11:00N 25°36' W 076°24'15616.5 140 / 191017.0 5.4 27.020.027.0
2014-Nov-17 01:33N 26°15' W 079°12'1717.5
2014-Nov-17 00:33N 26°05' W 079°29'1818.3
2014-Nov-16 23:33N 25°56' W 079°46'1818.0
2014-Nov-16 22:34N 25°46' W 080°02'8 7.5
2014-Nov-16 21:32N 25°47' W 080°11'1 0.6
2014-Nov-16 20:33N 25°47' W 080°10'0 0.0
2014-Nov-16 19:30N 25°47' W 080°10'0 0.0
2014-Nov-16 18:32N 25°47' W 080°10'0 0.0
2014-Nov-16 17:29N 25°47' W 080°10'0 0.0
2014-Nov-16 16:04N 25°47' W 080°10'0 0.0
2014-Nov-16 15:31N 25°47' W 080°10'0 0.0
2014-Nov-16 14:24N 25°47' W 080°10'0 0.0
2014-Nov-16 13:33N 25°47' W 080°10'0 0.0
2014-Nov-16 12:33N 25°47' W 080°10'0 0.0
2014-Nov-16 11:33N 25°47' W 080°10'8 7.7
2014-Nov-16 10:33N 25°45' W 080°02'1212.3
2014-Nov-16 09:33N 25°34' W 079°57'41518.4
2014-Nov-15 11:00N 20°54' W 085°30'   060 / 211016.0 5.4 26.019.029.0

Dump ship's entire track history